sensor_id;sensor_type;location;lat;lon;timestamp;pressure;altitude;pressure_sealevel;temperature;humidity
46267;BME280;31998;48.798;15.066;2022-08-27T00:01:21;95431.84;;;17.45;100.00
46267;BME280;31998;48.798;15.066;2022-08-27T00:03:47;95416.28;;;17.21;100.00
46267;BME280;31998;48.798;15.066;2022-08-27T00:06:18;95421.28;;;17.07;100.00
46267;BME280;31998;48.798;15.066;2022-08-27T00:08:45;95418.78;;;17.02;100.00
46267;BME280;31998;48.798;15.066;2022-08-27T00:11:12;95411.97;;;17.08;100.00
46267;BME280;31998;48.798;15.066;2022-08-27T00:13:39;95418.00;;;17.14;100.00
46267;BME280;31998;48.798;15.066;2022-08-27T00:16:06;95418.34;;;17.24;100.00
46267;BME280;31998;48.798;15.066;2022-08-27T00:18:33;95411.69;;;17.22;100.00
46267;BME280;31998;48.798;15.066;2022-08-27T00:21:00;95420.72;;;17.26;100.00
46267;BME280;31998;48.798;15.066;2022-08-27T00:23:25;95423.00;;;17.24;100.00
46267;BME280;31998;48.798;15.066;2022-08-27T00:25:51;95422.78;;;17.29;100.00
46267;BME280;31998;48.798;15.066;2022-08-27T00:28:16;95416.44;;;17.37;100.00
46267;BME280;31998;48.798;15.066;2022-08-27T00:30:42;95414.28;;;17.43;100.00
46267;BME280;31998;48.798;15.066;2022-08-27T00:33:07;95422.31;;;17.51;100.00
46267;BME280;31998;48.798;15.066;2022-08-27T00:35:33;95419.38;;;17.56;100.00
46267;BME280;31998;48.798;15.066;2022-08-27T00:37:59;95412.13;;;17.60;100.00
46267;BME280;31998;48.798;15.066;2022-08-27T00:40:25;95411.56;;;17.55;100.00
46267;BME280;31998;48.798;15.066;2022-08-27T00:42:52;95407.50;;;17.36;100.00
46267;BME280;31998;48.798;15.066;2022-08-27T00:45:20;95405.53;;;17.25;100.00
46267;BME280;31998;48.798;15.066;2022-08-27T00:47:53;95413.34;;;17.14;100.00
46267;BME280;31998;48.798;15.066;2022-08-27T00:50:28;95408.03;;;17.05;100.00
46267;BME280;31998;48.798;15.066;2022-08-27T00:52:58;95405.66;;;17.04;100.00
46267;BME280;31998;48.798;15.066;2022-08-27T00:55:27;95398.50;;;17.12;100.00
46267;BME280;31998;48.798;15.066;2022-08-27T00:58:11;95402.94;;;17.16;100.00
46267;BME280;31998;48.798;15.066;2022-08-27T01:00:39;95405.09;;;17.23;100.00
46267;BME280;31998;48.798;15.066;2022-08-27T01:03:05;95404.88;;;17.28;100.00
46267;BME280;31998;48.798;15.066;2022-08-27T01:05:31;95398.88;;;17.34;100.00
46267;BME280;31998;48.798;15.066;2022-08-27T01:08:03;95401.69;;;17.38;100.00
46267;BME280;31998;48.798;15.066;2022-08-27T01:10:30;95397.41;;;17.37;100.00
46267;BME280;31998;48.798;15.066;2022-08-27T01:12:56;95402.84;;;17.37;100.00
46267;BME280;31998;48.798;15.066;2022-08-27T01:15:25;95401.47;;;17.31;100.00
46267;BME280;31998;48.798;15.066;2022-08-27T01:17:51;95387.41;;;17.04;100.00
46267;BME280;31998;48.798;15.066;2022-08-27T01:20:20;95393.84;;;17.00;100.00
46267;BME280;31998;48.798;15.066;2022-08-27T01:23:26;95406.78;;;17.03;100.00
46267;BME280;31998;48.798;15.066;2022-08-27T01:25:56;95404.94;;;16.95;100.00
46267;BME280;31998;48.798;15.066;2022-08-27T01:28:23;95402.91;;;16.92;100.00
46267;BME280;31998;48.798;15.066;2022-08-27T01:30:50;95409.38;;;16.99;100.00
46267;BME280;31998;48.798;15.066;2022-08-27T01:33:18;95413.44;;;16.93;100.00
46267;BME280;31998;48.798;15.066;2022-08-27T01:35:47;95413.63;;;16.88;100.00
46267;BME280;31998;48.798;15.066;2022-08-27T01:38:14;95421.72;;;16.97;100.00
46267;BME280;31998;48.798;15.066;2022-08-27T01:40:40;95423.16;;;16.94;100.00
46267;BME280;31998;48.798;15.066;2022-08-27T01:43:07;95413.66;;;17.00;100.00
46267;BME280;31998;48.798;15.066;2022-08-27T01:45:36;95424.56;;;17.13;100.00
46267;BME280;31998;48.798;15.066;2022-08-27T01:48:03;95415.41;;;17.17;100.00
46267;BME280;31998;48.798;15.066;2022-08-27T01:50:33;95414.06;;;17.23;100.00
46267;BME280;31998;48.798;15.066;2022-08-27T01:53:09;95405.53;;;17.25;100.00
46267;BME280;31998;48.798;15.066;2022-08-27T01:55:36;95399.88;;;17.05;100.00
46267;BME280;31998;48.798;15.066;2022-08-27T01:58:02;95402.78;;;17.00;100.00
46267;BME280;31998;48.798;15.066;2022-08-27T02:00:39;95391.69;;;17.05;100.00
46267;BME280;31998;48.798;15.066;2022-08-27T02:03:06;95398.28;;;17.17;100.00
46267;BME280;31998;48.798;15.066;2022-08-27T02:05:33;95393.53;;;17.14;100.00
46267;BME280;31998;48.798;15.066;2022-08-27T02:07:59;95392.50;;;17.06;100.00
46267;BME280;31998;48.798;15.066;2022-08-27T02:10:28;95394.88;;;17.07;100.00
46267;BME280;31998;48.798;15.066;2022-08-27T02:12:54;95400.00;;;17.09;100.00
46267;BME280;31998;48.798;15.066;2022-08-27T02:15:20;95393.28;;;17.06;100.00
46267;BME280;31998;48.798;15.066;2022-08-27T02:17:46;95394.06;;;17.07;100.00
46267;BME280;31998;48.798;15.066;2022-08-27T02:20:13;95387.75;;;17.03;100.00
46267;BME280;31998;48.798;15.066;2022-08-27T02:22:40;95387.28;;;17.13;100.00
46267;BME280;31998;48.798;15.066;2022-08-27T02:25:07;95389.00;;;17.18;100.00
46267;BME280;31998;48.798;15.066;2022-08-27T02:27:34;95396.03;;;17.19;100.00
46267;BME280;31998;48.798;15.066;2022-08-27T02:30:00;95376.75;;;17.24;100.00
46267;BME280;31998;48.798;15.066;2022-08-27T02:32:25;95383.00;;;17.24;100.00
46267;BME280;31998;48.798;15.066;2022-08-27T02:34:52;95380.63;;;17.23;100.00
46267;BME280;31998;48.798;15.066;2022-08-27T02:37:18;95386.50;;;17.13;100.00
46267;BME280;31998;48.798;15.066;2022-08-27T02:39:43;95378.56;;;17.07;100.00
46267;BME280;31998;48.798;15.066;2022-08-27T02:42:09;95381.16;;;17.04;100.00
46267;BME280;31998;48.798;15.066;2022-08-27T02:44:34;95379.81;;;16.98;100.00
46267;BME280;31998;48.798;15.066;2022-08-27T02:47:00;95381.16;;;17.04;100.00
46267;BME280;31998;48.798;15.066;2022-08-27T02:49:28;95378.56;;;17.07;100.00
46267;BME280;31998;48.798;15.066;2022-08-27T02:51:55;95376.75;;;17.12;100.00
46267;BME280;31998;48.798;15.066;2022-08-27T02:54:22;95375.38;;;17.05;100.00
46267;BME280;31998;48.798;15.066;2022-08-27T02:56:49;95381.28;;;17.07;100.00
46267;BME280;31998;48.798;15.066;2022-08-27T02:59:15;95365.22;;;17.02;100.00
46267;BME280;31998;48.798;15.066;2022-08-27T03:01:40;95377.09;;;17.10;100.00
46267;BME280;31998;48.798;15.066;2022-08-27T03:04:05;95381.75;;;17.09;100.00
46267;BME280;31998;48.798;15.066;2022-08-27T03:06:31;95374.59;;;17.05;100.00
46267;BME280;31998;48.798;15.066;2022-08-27T03:08:56;95368.25;;;17.01;100.00
46267;BME280;31998;48.798;15.066;2022-08-27T03:11:22;95383.19;;;17.07;100.00
46267;BME280;31998;48.798;15.066;2022-08-27T03:13:48;95385.47;;;17.05;100.00
46267;BME280;31998;48.798;15.066;2022-08-27T03:16:14;95380.25;;;17.00;100.00
46267;BME280;31998;48.798;15.066;2022-08-27T03:18:39;95379.81;;;16.98;100.00
46267;BME280;31998;48.798;15.066;2022-08-27T03:21:05;95380.91;;;16.85;100.00
46267;BME280;31998;48.798;15.066;2022-08-27T03:23:33;95381.34;;;16.74;100.00
46267;BME280;31998;48.798;15.066;2022-08-27T03:26:06;95371.16;;;16.71;100.00
46267;BME280;31998;48.798;15.066;2022-08-27T03:28:34;95382.25;;;16.78;100.00
46267;BME280;31998;48.798;15.066;2022-08-27T03:31:04;95380.13;;;16.84;100.00
46267;BME280;31998;48.798;15.066;2022-08-27T03:33:32;95382.16;;;16.87;100.00
46267;BME280;31998;48.798;15.066;2022-08-27T03:35:58;95372.88;;;16.88;100.00
46267;BME280;31998;48.798;15.066;2022-08-27T03:38:24;95368.34;;;16.92;100.00
46267;BME280;31998;48.798;15.066;2022-08-27T03:40:50;95359.03;;;16.81;100.00
46267;BME280;31998;48.798;15.066;2022-08-27T03:43:19;95372.38;;;16.74;100.00
46267;BME280;31998;48.798;15.066;2022-08-27T03:45:46;95375.25;;;16.77;100.00
46267;BME280;31998;48.798;15.066;2022-08-27T03:48:12;95371.06;;;16.80;100.00
46267;BME280;31998;48.798;15.066;2022-08-27T03:50:39;95378.41;;;16.79;100.00
46267;BME280;31998;48.798;15.066;2022-08-27T03:53:05;95377.81;;;16.74;100.00
46267;BME280;31998;48.798;15.066;2022-08-27T03:55:31;95383.06;;;16.79;100.00
46267;BME280;31998;48.798;15.066;2022-08-27T03:57:56;95375.34;;;16.81;100.00
46267;BME280;31998;48.798;15.066;2022-08-27T04:00:22;95380.91;;;16.85;100.00
46267;BME280;31998;48.798;15.066;2022-08-27T04:02:49;95371.28;;;16.87;100.00
46267;BME280;31998;48.798;15.066;2022-08-27T04:05:15;95374.94;;;16.91;100.00
46267;BME280;31998;48.798;15.066;2022-08-27T04:07:41;95370.50;;;16.87;100.00
46267;BME280;31998;48.798;15.066;2022-08-27T04:10:09;95371.97;;;16.84;100.00
46267;BME280;31998;48.798;15.066;2022-08-27T04:12:36;95369.25;;;16.84;100.00
46267;BME280;31998;48.798;15.066;2022-08-27T04:15:02;95369.91;;;16.81;100.00
46267;BME280;31998;48.798;15.066;2022-08-27T04:17:29;95369.50;;;16.91;100.00
46267;BME280;31998;48.798;15.066;2022-08-27T04:19:55;95370.41;;;16.95;100.00
46267;BME280;31998;48.798;15.066;2022-08-27T04:22:20;95376.97;;;16.94;100.00
46267;BME280;31998;48.798;15.066;2022-08-27T04:24:48;95372.56;;;16.90;100.00
46267;BME280;31998;48.798;15.066;2022-08-27T04:27:14;95368.31;;;16.80;100.00
46267;BME280;31998;48.798;15.066;2022-08-27T04:29:40;95363.09;;;16.75;100.00
46267;BME280;31998;48.798;15.066;2022-08-27T04:32:06;95375.34;;;16.81;100.00
46267;BME280;31998;48.798;15.066;2022-08-27T04:34:32;95372.41;;;16.86;100.00
46267;BME280;31998;48.798;15.066;2022-08-27T04:36:59;95358.38;;;16.84;100.00
46267;BME280;31998;48.798;15.066;2022-08-27T04:39:28;95369.03;;;16.89;100.00
46267;BME280;31998;48.798;15.066;2022-08-27T04:41:57;95368.13;;;16.97;100.00
46267;BME280;31998;48.798;15.066;2022-08-27T04:44:25;95367.00;;;16.98;100.00
46267;BME280;31998;48.798;15.066;2022-08-27T04:47:00;95375.16;;;16.98;100.00
46267;BME280;31998;48.798;15.066;2022-08-27T04:49:27;95387.50;;;16.84;100.00
46267;BME280;31998;48.798;15.066;2022-08-27T04:51:53;95379.41;;;16.75;100.00
46267;BME280;31998;48.798;15.066;2022-08-27T04:54:19;95385.78;;;16.79;100.00
46267;BME280;31998;48.798;15.066;2022-08-27T04:56:44;95381.72;;;16.85;100.00
46267;BME280;31998;48.798;15.066;2022-08-27T04:59:10;95386.16;;;16.90;100.00
46267;BME280;31998;48.798;15.066;2022-08-27T05:01:38;95390.53;;;16.94;100.00
46267;BME280;31998;48.798;15.066;2022-08-27T05:04:04;95389.19;;;17.00;100.00
46267;BME280;31998;48.798;15.066;2022-08-27T05:06:30;95384.25;;;17.02;100.00
46267;BME280;31998;48.798;15.066;2022-08-27T05:08:55;95389.00;;;17.05;100.00
46267;BME280;31998;48.798;15.066;2022-08-27T05:11:23;95402.16;;;17.16;100.00
46267;BME280;31998;48.798;15.066;2022-08-27T05:13:50;95402.25;;;17.19;100.00
46267;BME280;31998;48.798;15.066;2022-08-27T05:16:19;95406.91;;;17.19;100.00
46267;BME280;31998;48.798;15.066;2022-08-27T05:18:45;95412.78;;;17.08;100.00
46267;BME280;31998;48.798;15.066;2022-08-27T05:21:19;95411.09;;;17.04;100.00
46267;BME280;31998;48.798;15.066;2022-08-27T05:23:46;95416.19;;;17.05;100.00
46267;BME280;31998;48.798;15.066;2022-08-27T05:26:12;95411.19;;;17.07;100.00
46267;BME280;31998;48.798;15.066;2022-08-27T05:28:38;95408.38;;;17.16;100.00
46267;BME280;31998;48.798;15.066;2022-08-27T05:31:08;95414.41;;;17.22;100.00
46267;BME280;31998;48.798;15.066;2022-08-27T05:33:35;95417.44;;;17.32;100.00
46267;BME280;31998;48.798;15.066;2022-08-27T05:36:03;95416.09;;;17.39;100.00
46267;BME280;31998;48.798;15.066;2022-08-27T05:38:29;95417.81;;;17.43;100.00
46267;BME280;31998;48.798;15.066;2022-08-27T05:41:07;95414.50;;;17.50;100.00
46267;BME280;31998;48.798;15.066;2022-08-27T05:43:34;95409.63;;;17.55;100.00
46267;BME280;31998;48.798;15.066;2022-08-27T05:46:03;95411.78;;;17.62;100.00
46267;BME280;31998;48.798;15.066;2022-08-27T05:48:30;95408.84;;;17.67;100.00
46267;BME280;31998;48.798;15.066;2022-08-27T05:50:55;95414.84;;;17.73;100.00
46267;BME280;31998;48.798;15.066;2022-08-27T05:53:21;95408.03;;;17.79;100.00
46267;BME280;31998;48.798;15.066;2022-08-27T05:55:47;95404.75;;;17.85;100.00
46267;BME280;31998;48.798;15.066;2022-08-27T05:58:13;95412.91;;;17.85;100.00
46267;BME280;31998;48.798;15.066;2022-08-27T06:00:58;95416.19;;;17.91;100.00
46267;BME280;31998;48.798;15.066;2022-08-27T06:03:34;95426.41;;;17.94;100.00
46267;BME280;31998;48.798;15.066;2022-08-27T06:06:02;95436.81;;;18.04;100.00
46267;BME280;31998;48.798;15.066;2022-08-27T06:08:29;95428.97;;;18.15;100.00
46267;BME280;31998;48.798;15.066;2022-08-27T06:10:55;95431.31;;;18.29;100.00
46267;BME280;31998;48.798;15.066;2022-08-27T06:13:21;95432.88;;;18.42;100.00
46267;BME280;31998;48.798;15.066;2022-08-27T06:15:47;95433.03;;;18.61;100.00
46267;BME280;31998;48.798;15.066;2022-08-27T06:18:13;95437.16;;;18.83;100.00
46267;BME280;31998;48.798;15.066;2022-08-27T06:20:38;95434.81;;;18.97;100.00
46267;BME280;31998;48.798;15.066;2022-08-27T06:23:04;95429.75;;;18.84;100.00
46267;BME280;31998;48.798;15.066;2022-08-27T06:25:30;95430.66;;;18.88;100.00
46267;BME280;31998;48.798;15.066;2022-08-27T06:27:57;95421.88;;;18.94;100.00
46267;BME280;31998;48.798;15.066;2022-08-27T06:30:23;95418.53;;;19.01;100.00
46267;BME280;31998;48.798;15.066;2022-08-27T06:32:49;95431.66;;;19.11;100.00
46267;BME280;31998;48.798;15.066;2022-08-27T06:35:15;95428.94;;;19.11;100.00
46267;BME280;31998;48.798;15.066;2022-08-27T06:37:41;95428.50;;;19.25;100.00
46267;BME280;31998;48.798;15.066;2022-08-27T06:40:07;95421.03;;;19.38;100.00
46267;BME280;31998;48.798;15.066;2022-08-27T06:42:33;95423.56;;;19.46;100.00
46267;BME280;31998;48.798;15.066;2022-08-27T06:44:58;95423.56;;;19.46;100.00
46267;BME280;31998;48.798;15.066;2022-08-27T06:47:24;95424.72;;;19.61;100.00
46267;BME280;31998;48.798;15.066;2022-08-27T06:49:50;95420.31;;;19.72;100.00
46267;BME280;31998;48.798;15.066;2022-08-27T06:52:15;95420.31;;;19.57;100.00
46267;BME280;31998;48.798;15.066;2022-08-27T06:54:41;95423.94;;;19.76;100.00
46267;BME280;31998;48.798;15.066;2022-08-27T06:57:06;95423.97;;;19.96;100.00
46267;BME280;31998;48.798;15.066;2022-08-27T06:59:32;95431.19;;;20.04;100.00
46267;BME280;31998;48.798;15.066;2022-08-27T07:01:57;95429.28;;;20.08;100.00
46267;BME280;31998;48.798;15.066;2022-08-27T07:04:24;95434.50;;;20.13;100.00
46267;BME280;31998;48.798;15.066;2022-08-27T07:06:49;95432.69;;;20.21;100.00
46267;BME280;31998;48.798;15.066;2022-08-27T07:09:16;95429.78;;;20.29;100.00
46267;BME280;31998;48.798;15.066;2022-08-27T07:11:43;95418.72;;;20.06;100.00
46267;BME280;31998;48.798;15.066;2022-08-27T07:14:09;95430.44;;;20.07;100.00
46267;BME280;31998;48.798;15.066;2022-08-27T07:16:35;95423.25;;;19.99;100.00
46267;BME280;31998;48.798;15.066;2022-08-27T07:19:03;95437.97;;;19.94;100.00
46267;BME280;31998;48.798;15.066;2022-08-27T07:21:31;95430.06;;;19.89;100.00
46267;BME280;31998;48.798;15.066;2022-08-27T07:23:57;95441.78;;;19.90;100.00
46267;BME280;31998;48.798;15.066;2022-08-27T07:26:24;95442.06;;;19.85;100.00
46267;BME280;31998;48.798;15.066;2022-08-27T07:28:50;95444.53;;;19.90;100.00
46267;BME280;31998;48.798;15.066;2022-08-27T07:31:20;95447.78;;;19.95;100.00
46267;BME280;31998;48.798;15.066;2022-08-27T07:33:45;95439.66;;;19.99;100.00
46267;BME280;31998;48.798;15.066;2022-08-27T07:36:12;95435.50;;;20.05;100.00
46267;BME280;31998;48.798;15.066;2022-08-27T07:38:37;95428.88;;;20.06;100.00
46267;BME280;31998;48.798;15.066;2022-08-27T07:41:07;95426.56;;;20.08;100.00
46267;BME280;31998;48.798;15.066;2022-08-27T07:43:33;95425.50;;;20.13;100.00
46267;BME280;31998;48.798;15.066;2022-08-27T07:46:19;95423.72;;;20.20;100.00
46267;BME280;31998;48.798;15.066;2022-08-27T07:48:45;95435.75;;;20.35;100.00
46267;BME280;31998;48.798;15.066;2022-08-27T07:51:17;95435.19;;;20.45;100.00
46267;BME280;31998;48.798;15.066;2022-08-27T07:53:43;95429.22;;;20.59;100.00
46267;BME280;31998;48.798;15.066;2022-08-27T07:56:10;95435.28;;;20.88;100.00
46267;BME280;31998;48.798;15.066;2022-08-27T07:58:37;95437.13;;;21.03;100.00
46267;BME280;31998;48.798;15.066;2022-08-27T08:01:02;95441.25;;;21.16;100.00
46267;BME280;31998;48.798;15.066;2022-08-27T08:03:28;95439.25;;;21.32;100.00
46267;BME280;31998;48.798;15.066;2022-08-27T08:05:54;95425.34;;;21.45;100.00
46267;BME280;31998;48.798;15.066;2022-08-27T08:08:20;95423.28;;;21.61;100.00
46267;BME280;31998;48.798;15.066;2022-08-27T08:10:46;95438.41;;;21.78;100.00
46267;BME280;31998;48.798;15.066;2022-08-27T08:13:13;95429.88;;;21.83;100.00
46267;BME280;31998;48.798;15.066;2022-08-27T08:15:38;95431.03;;;22.08;100.00
46267;BME280;31998;48.798;15.066;2022-08-27T08:18:04;95427.94;;;22.10;100.00
46267;BME280;31998;48.798;15.066;2022-08-27T08:20:30;95423.81;;;22.23;100.00
46267;BME280;31998;48.798;15.066;2022-08-27T08:22:55;95419.97;;;22.28;100.00
46267;BME280;31998;48.798;15.066;2022-08-27T08:25:21;95431.09;;;22.38;100.00
46267;BME280;31998;48.798;15.066;2022-08-27T08:27:47;95429.97;;;22.43;100.00
46267;BME280;31998;48.798;15.066;2022-08-27T08:30:12;95429.63;;;22.48;100.00
46267;BME280;31998;48.798;15.066;2022-08-27T08:32:38;95431.19;;;22.79;100.00
46267;BME280;31998;48.798;15.066;2022-08-27T08:35:04;95440.47;;;23.01;100.00
46267;BME280;31998;48.798;15.066;2022-08-27T08:37:30;95420.41;;;23.34;100.00
46267;BME280;31998;48.798;15.066;2022-08-27T08:39:56;95420.25;;;23.61;100.00
46267;BME280;31998;48.798;15.066;2022-08-27T08:42:42;95413.41;;;23.40;100.00
46267;BME280;31998;48.798;15.066;2022-08-27T08:45:10;95426.31;;;23.36;100.00
46267;BME280;31998;48.798;15.066;2022-08-27T08:47:48;95428.56;;;23.23;100.00
46267;BME280;31998;48.798;15.066;2022-08-27T08:55:27;95434.69;;;23.50;100.00
46267;BME280;31998;48.798;15.066;2022-08-27T08:58:14;95432.00;;;23.58;100.00
46267;BME280;31998;48.798;15.066;2022-08-27T09:00:42;95427.22;;;23.95;100.00
46267;BME280;31998;48.798;15.066;2022-08-27T09:03:10;95421.00;;;23.58;100.00
46267;BME280;31998;48.798;15.066;2022-08-27T09:05:41;95438.81;;;23.71;100.00
46267;BME280;31998;48.798;15.066;2022-08-27T09:08:18;95437.28;;;23.77;100.00
46267;BME280;31998;48.798;15.066;2022-08-27T09:13:55;95448.44;;;23.50;100.00
46267;BME280;31998;48.798;15.066;2022-08-27T09:16:24;95435.09;;;23.52;100.00
46267;BME280;31998;48.798;15.066;2022-08-27T09:18:49;95445.44;;;23.63;100.00
46267;BME280;31998;48.798;15.066;2022-08-27T09:24:20;95441.91;;;23.66;100.00
46267;BME280;31998;48.798;15.066;2022-08-27T09:26:48;95451.09;;;23.84;100.00
46267;BME280;31998;48.798;15.066;2022-08-27T09:29:15;95438.50;;;23.83;100.00
46267;BME280;31998;48.798;15.066;2022-08-27T09:34:10;95441.25;;;23.83;100.00
46267;BME280;31998;48.798;15.066;2022-08-27T09:36:48;95435.47;;;23.95;100.00
46267;BME280;31998;48.798;15.066;2022-08-27T09:39:15;95430.06;;;24.09;100.00
46267;BME280;31998;48.798;15.066;2022-08-27T09:41:46;95428.22;;;24.28;100.00
46267;BME280;31998;48.798;15.066;2022-08-27T09:44:17;95418.75;;;24.25;100.00
46267;BME280;31998;48.798;15.066;2022-08-27T09:47:03;95416.00;;;24.22;100.00
46267;BME280;31998;48.798;15.066;2022-08-27T09:49:29;95426.94;;;24.15;100.00
46267;BME280;31998;48.798;15.066;2022-08-27T09:51:55;95420.66;;;24.18;100.00
46267;BME280;31998;48.798;15.066;2022-08-27T09:56:52;95420.88;;;24.46;100.00
46267;BME280;31998;48.798;15.066;2022-08-27T09:59:21;95416.53;;;24.49;100.00
46267;BME280;31998;48.798;15.066;2022-08-27T10:01:51;95413.63;;;24.24;100.00
46267;BME280;31998;48.798;15.066;2022-08-27T10:04:32;95413.25;;;24.22;100.00
46267;BME280;31998;48.798;15.066;2022-08-27T10:07:09;95419.16;;;24.31;100.00
46267;BME280;31998;48.798;15.066;2022-08-27T10:09:42;95402.72;;;24.34;100.00
46267;BME280;31998;48.798;15.066;2022-08-27T10:12:21;95403.50;;;24.35;100.00
46267;BME280;31998;48.798;15.066;2022-08-27T10:14:52;95398.75;;;24.32;100.00
46267;BME280;31998;48.798;15.066;2022-08-27T10:30:19;95415.53;;;24.85;100.00
46267;BME280;31998;48.798;15.066;2022-08-27T10:32:59;95412.84;;;25.07;100.00
46267;BME280;31998;48.798;15.066;2022-08-27T10:35:54;95403.00;;;25.16;100.00
46267;BME280;31998;48.798;15.066;2022-08-27T10:38:32;95406.19;;;25.33;100.00
46267;BME280;31998;48.798;15.066;2022-08-27T10:51:31;95391.03;;;24.55;100.00
46267;BME280;31998;48.798;15.066;2022-08-27T10:54:37;95399.41;;;24.07;100.00
46267;BME280;31998;48.798;15.066;2022-08-27T10:57:13;95411.84;;;23.87;100.00
46267;BME280;31998;48.798;15.066;2022-08-27T11:02:23;95402.38;;;23.81;100.00
46267;BME280;31998;48.798;15.066;2022-08-27T11:05:15;95403.19;;;23.85;100.00
46267;BME280;31998;48.798;15.066;2022-08-27T11:07:48;95399.84;;;24.17;100.00
46267;BME280;31998;48.798;15.066;2022-08-27T11:10:51;95397.78;;;24.72;100.00
46267;BME280;31998;48.798;15.066;2022-08-27T11:15:49;95385.75;;;25.44;100.00
46267;BME280;31998;48.798;15.066;2022-08-27T11:18:48;95383.81;;;25.77;100.00
46267;BME280;31998;48.798;15.066;2022-08-27T11:21:42;95381.72;;;26.20;100.00
46267;BME280;31998;48.798;15.066;2022-08-27T11:26:37;95365.94;;;26.42;100.00
46267;BME280;31998;48.798;15.066;2022-08-27T11:29:17;95364.38;;;26.31;100.00
46267;BME280;31998;48.798;15.066;2022-08-27T11:42:54;95355.38;;;26.02;100.00
46267;BME280;31998;48.798;15.066;2022-08-27T11:45:30;95363.59;;;26.27;100.00
46267;BME280;31998;48.798;15.066;2022-08-27T11:48:17;95362.78;;;26.44;100.00
46267;BME280;31998;48.798;15.066;2022-08-27T11:51:13;95365.97;;;26.24;100.00
46267;BME280;31998;48.798;15.066;2022-08-27T11:53:56;95370.31;;;26.18;100.00
46267;BME280;31998;48.798;15.066;2022-08-27T11:58:53;95366.03;;;25.82;100.00
46267;BME280;31998;48.798;15.066;2022-08-27T12:01:29;95370.00;;;25.74;100.00
46267;BME280;31998;48.798;15.066;2022-08-27T12:04:17;95365.25;;;25.70;100.00
46267;BME280;31998;48.798;15.066;2022-08-27T12:06:58;95367.19;;;26.06;100.00
46267;BME280;31998;48.798;15.066;2022-08-27T12:09:24;95366.78;;;26.14;100.00
46267;BME280;31998;48.798;15.066;2022-08-27T12:11:55;95370.69;;;26.35;100.00
46267;BME280;31998;48.798;15.066;2022-08-27T12:14:46;95369.91;;;26.41;100.00
46267;BME280;31998;48.798;15.066;2022-08-27T12:22:39;95362.69;;;26.62;100.00
46267;BME280;31998;48.798;15.066;2022-08-27T12:25:26;95354.44;;;26.58;100.00
46267;BME280;31998;48.798;15.066;2022-08-27T12:28:21;95363.94;;;26.50;100.00
46267;BME280;31998;48.798;15.066;2022-08-27T12:30:48;95360.34;;;26.53;100.00
46267;BME280;31998;48.798;15.066;2022-08-27T12:33:38;95372.91;;;26.72;100.00
46267;BME280;31998;48.798;15.066;2022-08-27T12:36:16;95363.69;;;26.96;100.00
46267;BME280;31998;48.798;15.066;2022-08-27T12:38:47;95357.75;;;27.05;100.00
46267;BME280;31998;48.798;15.066;2022-08-27T12:44:14;95367.66;;;27.51;100.00
46267;BME280;31998;48.798;15.066;2022-08-27T12:47:00;95372.31;;;27.68;100.00
46267;BME280;31998;48.798;15.066;2022-08-27T12:49:32;95361.94;;;27.27;100.00
46267;BME280;31998;48.798;15.066;2022-08-27T12:52:12;95346.63;;;27.19;100.00
46267;BME280;31998;48.798;15.066;2022-08-27T13:02:51;95352.09;;;27.23;100.00
46267;BME280;31998;48.798;15.066;2022-08-27T13:05:20;95332.28;;;27.35;100.00
46267;BME280;31998;48.798;15.066;2022-08-27T13:07:48;95342.47;;;27.42;100.00
46267;BME280;31998;48.798;15.066;2022-08-27T13:10:23;95326.84;;;27.73;100.00
46267;BME280;31998;48.798;15.066;2022-08-27T13:13:08;95329.66;;;27.62;100.00
46267;BME280;31998;48.798;15.066;2022-08-27T13:15:34;95334.69;;;27.29;100.00
46267;BME280;31998;48.798;15.066;2022-08-27T13:18:02;95336.13;;;27.45;100.00
46267;BME280;31998;48.798;15.066;2022-08-27T13:20:28;95333.00;;;27.43;100.00
46267;BME280;31998;48.798;15.066;2022-08-27T13:22:54;95341.47;;;27.18;100.00
46267;BME280;31998;48.798;15.066;2022-08-27T13:25:32;95339.56;;;27.04;100.00
46267;BME280;31998;48.798;15.066;2022-08-27T13:28:09;95340.84;;;26.89;100.00
46267;BME280;31998;48.798;15.066;2022-08-27T13:30:39;95333.91;;;26.59;100.00
46267;BME280;31998;48.798;15.066;2022-08-27T13:33:09;95335.47;;;26.60;100.00
46267;BME280;31998;48.798;15.066;2022-08-27T13:35:36;95336.28;;;26.54;100.00
46267;BME280;31998;48.798;15.066;2022-08-27T13:38:03;95331.06;;;26.81;100.00
46267;BME280;31998;48.798;15.066;2022-08-27T13:40:47;95333.81;;;26.81;100.00
46267;BME280;31998;48.798;15.066;2022-08-27T13:43:15;95330.19;;;26.91;100.00
46267;BME280;31998;48.798;15.066;2022-08-27T13:45:41;95328.28;;;26.81;100.00
46267;BME280;31998;48.798;15.066;2022-08-27T13:48:11;95327.13;;;26.74;100.00
46267;BME280;31998;48.798;15.066;2022-08-27T13:50:49;95319.50;;;27.00;100.00
46267;BME280;31998;48.798;15.066;2022-08-27T13:53:20;95330.66;;;26.78;100.00
46267;BME280;31998;48.798;15.066;2022-08-27T13:56:07;95324.06;;;26.58;100.00
46267;BME280;31998;48.798;15.066;2022-08-27T13:58:33;95328.09;;;26.36;100.00
46267;BME280;31998;48.798;15.066;2022-08-27T14:01:13;95327.78;;;26.05;100.00
46267;BME280;31998;48.798;15.066;2022-08-27T14:03:59;95330.63;;;25.84;100.00
46267;BME280;31998;48.798;15.066;2022-08-27T14:06:30;95322.34;;;25.62;100.00
46267;BME280;31998;48.798;15.066;2022-08-27T14:08:57;95329.03;;;25.54;100.00
46267;BME280;31998;48.798;15.066;2022-08-27T14:11:25;95331.78;;;25.54;100.00